Time;durP1;ratioP1;P1;durP2;ratioP2;P2;SDS_P1;SDS_P2;PMS_P1;PMS_P2;Temp;Humidity;BMP_temperature;BMP_pressure;BME280_temperature;BME280_humidity;BME280_pressure;Samples;Min_cycle;Max_cycle;Signal;HPM_P1;HPM_P2
2023/08/22 00:01:15;;;;;;;2.30;1.80;;;22.30;63.90;;;;;;5008108;28;20201;-59
2023/08/22 00:03:43;;;;;;;2.58;1.83;;;22.40;63.90;;;;;;5012570;28;20326;-59
2023/08/22 00:06:10;;;;;;;2.35;1.70;;;22.30;63.90;;;;;;5010874;28;20849;-58
2023/08/22 00:08:37;;;;;;;4.15;1.55;;;22.40;63.90;;;;;;5012269;28;20291;-56
2023/08/22 00:11:04;;;;;;;2.17;1.73;;;22.30;63.90;;;;;;5012555;28;20746;-59
2023/08/22 00:13:31;;;;;;;3.78;2.03;;;22.40;63.90;;;;;;5010530;28;20225;-59
2023/08/22 00:15:59;;;;;;;2.38;1.70;;;22.40;63.90;;;;;;5012288;28;20288;-60
2023/08/22 00:18:27;;;;;;;2.80;1.40;;;22.30;64.60;;;;;;5012223;28;20216;-60
2023/08/22 00:20:55;;;;;;;4.43;1.90;;;22.30;63.80;;;;;;5012486;28;20200;-59
2023/08/22 00:23:22;;;;;;;4.10;1.92;;;22.30;63.80;;;;;;5012529;28;20404;-60
2023/08/22 00:25:49;;;;;;;1.88;1.63;;;22.30;63.80;;;;;;5009960;28;20307;-60
2023/08/22 00:28:15;;;;;;;2.85;1.70;;;22.30;63.80;;;;;;5012140;28;20260;-60
2023/08/22 00:30:51;;;;;;;4.55;1.67;;;22.30;63.80;;;;;;5012285;28;20193;-57
2023/08/22 00:33:20;;;;;;;2.50;1.77;;;22.30;63.80;;;;;;5012406;28;20309;-59
2023/08/22 00:35:47;;;;;;;3.67;1.60;;;22.30;63.80;;;;;;5011952;28;20225;-60
2023/08/22 00:38:15;;;;;;;2.08;1.50;;;22.30;63.60;;;;;;5010297;28;20304;-57
2023/08/22 00:40:42;;;;;;;2.95;1.70;;;22.30;63.60;;;;;;5012254;28;20272;-59
2023/08/22 00:43:11;;;;;;;3.70;1.60;;;22.30;63.60;;;;;;5011385;28;20363;-59
2023/08/22 00:45:38;;;;;;;2.40;1.65;;;22.30;63.60;;;;;;5010980;28;20235;-60
2023/08/22 00:48:06;;;;;;;1.88;1.60;;;22.30;63.60;;;;;;5010148;28;20330;-59
2023/08/22 00:50:34;;;;;;;2.13;1.50;;;22.30;63.60;;;;;;5011859;28;20276;-59
2023/08/22 00:53:01;;;;;;;3.97;1.88;;;22.30;63.60;;;;;;5011883;28;20304;-59
2023/08/22 00:55:30;;;;;;;2.80;1.63;;;22.30;63.60;;;;;;5011569;28;20286;-59
2023/08/22 00:57:57;;;;;;;1.88;1.45;;;22.30;63.50;;;;;;5012153;28;20336;-60
2023/08/22 01:00:24;;;;;;;5.07;1.83;;;22.30;63.50;;;;;;5011732;28;20285;-59
2023/08/22 01:02:51;;;;;;;4.20;1.60;;;22.30;63.50;;;;;;5010335;28;20644;-59
2023/08/22 01:05:20;;;;;;;3.25;1.60;;;22.30;63.50;;;;;;5009808;28;20636;-60
2023/08/22 01:08:02;;;;;;;2.53;1.60;;;22.30;63.50;;;;;;5011667;28;20579;-60
2023/08/22 01:10:46;;;;;;;4.82;1.48;;;22.20;63.40;;;;;;5011904;28;20267;-59
2023/08/22 01:13:20;;;;;;;3.05;1.55;;;22.20;63.60;;;;;;5011799;28;20237;-60
2023/08/22 01:15:52;;;;;;;3.30;1.60;;;22.30;63.50;;;;;;5010041;28;20271;-59
2023/08/22 01:18:20;;;;;;;4.05;1.58;;;22.20;63.40;;;;;;5011997;28;20221;-59
2023/08/22 01:20:47;;;;;;;3.55;1.90;;;22.20;63.40;;;;;;5012511;28;20724;-60
2023/08/22 01:23:15;;;;;;;2.33;1.60;;;22.20;63.30;;;;;;5015158;28;20221;-60
2023/08/22 01:25:48;;;;;;;2.15;1.30;;;22.20;63.30;;;;;;5013372;28;20233;-60
2023/08/22 01:28:21;;;;;;;2.65;1.55;;;22.30;63.40;;;;;;5015378;28;20224;-60
2023/08/22 01:30:54;;;;;;;3.20;1.80;;;22.20;63.30;;;;;;5014968;28;20585;-60
2023/08/22 01:33:26;;;;;;;3.30;1.50;;;22.20;64.10;;;;;;5013606;28;20218;-60
2023/08/22 01:35:55;;;;;;;2.72;1.75;;;22.20;63.30;;;;;;5014956;28;20280;-60
2023/08/22 01:38:26;;;;;;;3.47;1.60;;;22.20;63.20;;;;;;5014833;28;20537;-59
2023/08/22 01:40:54;;;;;;;5.22;1.83;;;22.20;63.20;;;;;;5012417;28;20735;-59
2023/08/22 01:43:21;;;;;;;2.35;1.73;;;22.20;63.20;;;;;;5012346;28;20221;-64
2023/08/22 01:45:48;;;;;;;2.97;1.75;;;22.30;63.30;;;;;;5014430;28;20297;-64
2023/08/22 01:48:15;;;;;;;2.33;1.75;;;22.20;63.10;;;;;;5013215;28;20671;-65
2023/08/22 01:50:42;;;;;;;2.00;1.60;;;22.20;63.10;;;;;;5014976;28;20190;-65
2023/08/22 01:53:09;;;;;;;1.88;1.50;;;22.20;63.10;;;;;;5015006;28;20223;-64
2023/08/22 01:55:37;;;;;;;2.60;1.48;;;22.20;63.10;;;;;;5014605;28;20276;-64
2023/08/22 01:58:08;;;;;;;3.97;1.90;;;22.20;63.10;;;;;;5013123;28;20308;-65
2023/08/22 02:00:35;;;;;;;2.17;1.63;;;22.20;63.00;;;;;;5014466;28;20189;-64
2023/08/22 02:03:02;;;;;;;2.28;1.60;;;22.20;63.10;;;;;;5014737;28;20223;-65
2023/08/22 02:05:29;;;;;;;1.98;1.77;;;22.20;63.00;;;;;;5012903;28;20213;-65
2023/08/22 02:07:56;;;;;;;2.33;1.60;;;22.20;63.00;;;;;;5014177;28;20285;-65
2023/08/22 02:10:23;;;;;;;2.60;1.70;;;22.20;63.00;;;;;;5014255;28;20713;-65
2023/08/22 02:12:51;;;;;;;2.40;1.52;;;22.10;62.80;;;;;;5012556;28;20499;-64
2023/08/22 02:15:20;;;;;;;2.38;1.60;;;22.20;62.90;;;;;;5014602;28;20278;-64
2023/08/22 02:17:47;;;;;;;2.75;1.50;;;22.20;63.00;;;;;;5012744;28;20197;-64
2023/08/22 02:20:14;;;;;;;2.90;1.60;;;22.20;62.90;;;;;;5014441;28;20296;-64
2023/08/22 02:22:42;;;;;;;2.08;1.45;;;22.20;62.80;;;;;;5012511;28;20671;-65
2023/08/22 02:25:11;;;;;;;1.88;1.50;;;22.10;62.80;;;;;;5012591;28;20196;-66
2023/08/22 02:27:38;;;;;;;2.65;1.30;;;22.10;62.80;;;;;;5013825;28;20660;-64
2023/08/22 02:30:08;;;;;;;3.45;1.65;;;22.20;62.90;;;;;;5012325;28;20299;-65
2023/08/22 02:32:35;;;;;;;2.90;1.60;;;22.20;62.80;;;;;;5014064;28;20192;-65
2023/08/22 02:35:02;;;;;;;2.78;1.60;;;22.10;62.70;;;;;;5013919;28;20221;-64
2023/08/22 02:37:29;;;;;;;3.25;1.38;;;22.20;62.80;;;;;;5013994;28;20189;-64
2023/08/22 02:39:56;;;;;;;2.17;1.42;;;22.20;62.80;;;;;;5014038;28;20216;-64
2023/08/22 02:42:23;;;;;;;2.92;1.70;;;22.20;62.80;;;;;;5011975;28;20197;-64
2023/08/22 02:44:49;;;;;;;1.70;1.42;;;22.10;62.70;;;;;;5013801;28;20755;-64
2023/08/22 02:47:19;;;;;;;2.03;1.25;;;22.10;62.70;;;;;;5013582;28;20216;-64
2023/08/22 02:49:46;;;;;;;2.72;1.58;;;22.10;62.70;;;;;;5014028;28;20217;-63
2023/08/22 02:52:13;;;;;;;2.95;1.40;;;22.20;62.70;;;;;;5012090;28;20201;-64
2023/08/22 02:54:40;;;;;;;2.10;1.42;;;22.20;62.80;;;;;;5013643;28;20221;-65
2023/08/22 02:57:07;;;;;;;2.50;1.80;;;22.10;62.60;;;;;;5011738;28;20287;-64
2023/08/22 02:59:34;;;;;;;3.70;1.50;;;22.20;62.70;;;;;;5013823;28;20230;-61
2023/08/22 03:02:01;;;;;;;2.45;1.75;;;22.10;62.70;;;;;;5011816;28;20456;-64
2023/08/22 03:04:30;;;;;;;3.55;1.75;;;22.10;62.70;;;;;;5013361;28;20790;-65
2023/08/22 03:06:57;;;;;;;2.42;1.77;;;22.10;62.70;;;;;;5013621;28;20217;-64
2023/08/22 03:09:24;;;;;;;2.80;1.77;;;22.10;62.70;;;;;;5013684;28;20224;-64
2023/08/22 03:11:51;;;;;;;2.15;1.55;;;22.10;62.70;;;;;;5011841;28;20194;-65
2023/08/22 03:14:17;;;;;;;3.05;1.70;;;22.10;62.70;;;;;;5013132;28;20241;-64
2023/08/22 03:16:44;;;;;;;4.47;1.60;;;22.20;62.70;;;;;;5011531;28;20292;-65
2023/08/22 03:19:11;;;;;;;2.20;1.20;;;22.10;62.60;;;;;;5011907;28;20307;-65
2023/08/22 03:21:39;;;;;;;2.13;1.65;;;22.10;62.70;;;;;;5013389;28;20210;-64
2023/08/22 03:24:07;;;;;;;2.45;1.30;;;22.10;62.70;;;;;;5013326;28;20217;-64
2023/08/22 03:26:33;;;;;;;3.28;1.60;;;22.10;63.40;;;;;;5011405;28;20217;-64
2023/08/22 03:29:00;;;;;;;2.88;1.40;;;22.10;62.60;;;;;;5013046;28;20308;-65
2023/08/22 03:31:28;;;;;;;2.97;1.50;;;22.10;62.60;;;;;;5013228;28;20199;-64
2023/08/22 03:33:55;;;;;;;2.17;1.23;;;22.10;62.60;;;;;;5012886;28;20671;-64
2023/08/22 03:36:22;;;;;;;1.50;1.20;;;22.10;62.60;;;;;;5011272;28;20283;-64
2023/08/22 03:38:51;;;;;;;3.45;1.40;;;22.10;62.60;;;;;;5012487;28;20711;-65
2023/08/22 03:41:18;;;;;;;1.90;1.10;;;22.10;62.60;;;;;;5012918;28;20193;-64
2023/08/22 03:43:45;;;;;;;1.52;1.10;;;22.10;62.60;;;;;;5010848;28;20337;-65
2023/08/22 03:46:12;;;;;;;1.63;1.50;;;22.10;62.60;;;;;;5012641;28;20275;-64
2023/08/22 03:48:38;;;;;;;2.00;1.38;;;22.10;62.60;;;;;;5012777;28;20216;-64
2023/08/22 03:51:06;;;;;;;1.27;1.02;;;22.10;62.60;;;;;;5012846;28;20190;-65
2023/08/22 03:53:35;;;;;;;1.08;0.90;;;22.00;62.50;;;;;;5012857;28;20225;-64
2023/08/22 03:56:03;;;;;;;1.35;1.25;;;22.00;62.50;;;;;;5011068;28;20201;-64
2023/08/22 03:58:30;;;;;;;1.20;1.10;;;22.00;62.50;;;;;;5010649;28;20304;-64
2023/08/22 04:01:02;;;;;;;1.27;1.10;;;22.00;62.40;;;;;;5012581;28;20193;-64
2023/08/22 04:03:29;;;;;;;2.17;1.25;;;22.10;62.50;;;;;;5011467;28;20275;-64
2023/08/22 04:05:57;;;;;;;1.52;1.20;;;22.10;62.50;;;;;;5012579;28;20224;-63
2023/08/22 04:08:25;;;;;;;1.25;1.15;;;22.10;63.30;;;;;;5012464;28;20227;-63
2023/08/22 04:10:52;;;;;;;2.15;1.35;;;22.10;62.50;;;;;;5010653;28;20189;-64
2023/08/22 04:13:21;;;;;;;1.98;1.02;;;22.00;62.40;;;;;;5012210;28;20315;-64
2023/08/22 04:15:48;;;;;;;1.80;1.38;;;22.10;62.50;;;;;;5012484;28;20287;-64
2023/08/22 04:18:15;;;;;;;1.45;1.00;;;22.00;63.20;;;;;;5012269;28;20227;-64
2023/08/22 04:20:43;;;;;;;1.25;1.15;;;22.10;62.50;;;;;;5011313;28;20778;-64
2023/08/22 04:23:09;;;;;;;1.60;1.20;;;22.00;62.40;;;;;;5012347;28;20193;-64
2023/08/22 04:25:36;;;;;;;2.15;1.23;;;22.00;62.40;;;;;;5012447;28;20221;-64
2023/08/22 04:28:04;;;;;;;1.40;1.30;;;22.10;62.50;;;;;;5010612;28;20280;-64
2023/08/22 04:30:32;;;;;;;1.10;1.00;;;22.00;63.20;;;;;;5012435;28;20239;-63
2023/08/22 04:32:59;;;;;;;1.50;1.17;;;22.00;62.40;;;;;;5012279;28;20189;-62
2023/08/22 04:35:26;;;;;;;2.65;1.05;;;22.00;62.40;;;;;;5012098;28;20186;-63
2023/08/22 04:37:53;;;;;;;1.50;1.10;;;22.00;62.40;;;;;;5012374;28;20197;-64
2023/08/22 04:40:19;;;;;;;1.73;1.10;;;22.00;62.40;;;;;;5012086;28;20550;-64
2023/08/22 04:42:46;;;;;;;1.35;1.20;;;22.00;62.40;;;;;;5010754;28;20292;-64
2023/08/22 04:45:13;;;;;;;1.58;0.90;;;22.00;62.30;;;;;;5012473;28;20231;-64
2023/08/22 04:47:41;;;;;;;1.45;1.10;;;22.00;62.30;;;;;;5012276;28;20224;-64
2023/08/22 04:50:09;;;;;;;1.00;1.00;;;22.00;62.40;;;;;;5012141;28;20587;-64
2023/08/22 04:52:36;;;;;;;1.65;1.15;;;22.00;62.30;;;;;;5011908;28;20189;-64
2023/08/22 04:55:03;;;;;;;1.27;1.10;;;22.00;62.30;;;;;;5010433;28;20322;-63
2023/08/22 04:57:30;;;;;;;0.95;0.90;;;22.00;62.30;;;;;;5015895;28;20196;-63
2023/08/22 04:59:57;;;;;;;1.25;0.98;;;22.00;62.30;;;;;;5016009;28;20221;-56
2023/08/22 05:02:24;;;;;;;1.20;1.10;;;22.00;62.30;;;;;;5015484;28;20196;-59
2023/08/22 05:04:53;;;;;;;1.30;1.20;;;22.00;62.30;;;;;;5015730;28;20691;-62
2023/08/22 05:07:19;;;;;;;1.10;1.00;;;22.00;62.40;;;;;;5014171;28;20352;-63
2023/08/22 05:09:46;;;;;;;1.35;1.05;;;22.00;62.40;;;;;;5015433;28;20695;-62
2023/08/22 05:12:13;;;;;;;1.02;0.98;;;22.00;62.30;;;;;;5015408;28;20747;-64
2023/08/22 05:14:40;;;;;;;1.02;0.85;;;22.00;62.30;;;;;;5015725;28;20217;-64
2023/08/22 05:17:07;;;;;;;1.50;0.90;;;22.00;62.30;;;;;;5015518;28;20212;-58
2023/08/22 05:19:34;;;;;;;1.10;1.00;;;22.00;63.20;;;;;;5013342;28;20308;-63
2023/08/22 05:22:02;;;;;;;1.77;1.00;;;21.90;62.20;;;;;;5015662;28;20276;-62
2023/08/22 05:24:29;;;;;;;1.20;1.10;;;21.90;62.20;;;;;;5013823;28;20304;-59
2023/08/22 05:26:56;;;;;;;1.38;0.90;;;22.00;62.30;;;;;;5015380;28;20595;-59
2023/08/22 05:29:23;;;;;;;1.58;1.08;;;22.00;62.30;;;;;;5015271;28;20231;-62
2023/08/22 05:31:49;;;;;;;1.20;1.08;;;22.00;62.30;;;;;;5015438;28;20193;-63
2023/08/22 05:34:16;;;;;;;1.58;0.85;;;21.90;62.30;;;;;;5014091;28;20275;-61
2023/08/22 05:36:43;;;;;;;0.70;0.70;;;22.00;62.30;;;;;;5015007;28;20193;-62
2023/08/22 05:39:11;;;;;;;1.08;0.98;;;22.00;62.30;;;;;;5014971;28;20227;-58
2023/08/22 05:41:38;;;;;;;0.85;0.80;;;22.00;62.30;;;;;;5015481;28;20189;-61
2023/08/22 05:44:05;;;;;;;1.60;0.80;;;21.90;62.20;;;;;;5014871;28;20709;-59
2023/08/22 05:46:33;;;;;;;1.50;1.02;;;21.90;62.20;;;;;;5014922;28;20217;-59
2023/08/22 05:49:00;;;;;;;0.90;0.90;;;21.90;62.20;;;;;;5015094;28;20283;-60
2023/08/22 05:51:27;;;;;;;3.50;1.02;;;21.90;62.20;;;;;;5013073;28;20282;-60
2023/08/22 05:53:53;;;;;;;1.15;0.85;;;21.90;62.10;;;;;;5015145;28;20221;-60
2023/08/22 05:56:22;;;;;;;0.70;0.70;;;21.90;62.20;;;;;;5013272;28;20280;-60
2023/08/22 05:58:48;;;;;;;1.10;0.90;;;21.90;62.20;;;;;;5014957;28;20304;-60
2023/08/22 06:01:16;;;;;;;0.85;0.85;;;21.90;62.10;;;;;;5012949;28;20459;-60
2023/08/22 06:03:42;;;;;;;1.98;0.63;;;21.90;62.20;;;;;;5014834;28;20221;-59
2023/08/22 06:06:09;;;;;;;4.00;0.88;;;21.90;62.20;;;;;;5012359;28;20186;-56
2023/08/22 06:08:36;;;;;;;0.93;0.68;;;21.90;62.10;;;;;;5014935;28;20308;-57
2023/08/22 06:11:03;;;;;;;2.75;0.85;;;21.90;62.10;;;;;;5014176;28;20203;-56
2023/08/22 06:13:31;;;;;;;3.00;0.80;;;21.90;62.20;;;;;;5014344;28;20629;-59
2023/08/22 06:15:58;;;;;;;2.88;0.70;;;21.90;62.20;;;;;;5014228;28;20204;-58
2023/08/22 06:18:25;;;;;;;1.23;0.82;;;21.90;62.10;;;;;;5013963;28;20225;-57
2023/08/22 06:20:52;;;;;;;0.80;0.80;;;21.90;62.10;;;;;;5013157;28;20194;-58
2023/08/22 06:23:18;;;;;;;1.00;0.90;;;21.90;62.10;;;;;;5013581;28;20197;-59
2023/08/22 06:25:47;;;;;;;0.80;0.80;;;21.90;62.10;;;;;;5014070;28;20288;-59
2023/08/22 06:28:14;;;;;;;1.10;1.00;;;21.90;62.10;;;;;;5013857;28;20597;-58
2023/08/22 06:30:42;;;;;;;0.80;0.80;;;21.90;62.10;;;;;;5013802;28;20640;-59
2023/08/22 06:33:09;;;;;;;1.25;0.80;;;21.90;62.00;;;;;;5012238;28;20276;-58
2023/08/22 06:35:36;;;;;;;1.63;0.90;;;21.90;62.10;;;;;;5014127;28;20194;-59
2023/08/22 06:38:04;;;;;;;0.82;0.82;;;21.90;62.10;;;;;;5013987;28;20471;-57
2023/08/22 06:40:31;;;;;;;1.23;0.85;;;21.90;62.10;;;;;;5013850;28;20193;-58
2023/08/22 06:42:58;;;;;;;0.88;0.80;;;21.90;62.10;;;;;;5012393;28;20196;-57
2023/08/22 06:45:24;;;;;;;3.63;1.00;;;21.90;62.10;;;;;;5012219;28;20219;-58
2023/08/22 06:47:52;;;;;;;0.85;0.85;;;21.90;62.10;;;;;;5013883;28;20312;-56
2023/08/22 06:50:19;;;;;;;0.93;0.90;;;21.90;62.10;;;;;;5012131;28;20300;-56
2023/08/22 06:52:46;;;;;;;2.90;0.90;;;21.90;62.10;;;;;;5013532;28;20288;-56
2023/08/22 06:55:13;;;;;;;2.03;1.20;;;21.90;62.90;;;;;;5013651;28;20439;-57
2023/08/22 06:57:40;;;;;;;3.10;0.98;;;21.90;62.10;;;;;;5011945;28;20272;-63
2023/08/22 07:00:13;;;;;;;1.17;0.80;;;21.90;62.10;;;;;;5009687;28;20741;-63
2023/08/22 07:02:41;;;;;;;0.95;0.90;;;21.90;62.10;;;;;;5010687;28;20267;-59
2023/08/22 07:05:10;;;;;;;1.10;0.93;;;21.90;62.00;;;;;;5012592;28;20225;-64
2023/08/22 07:07:38;;;;;;;1.20;0.88;;;22.00;61.80;;;;;;5003961;28;20218;-63
2023/08/22 07:10:08;;;;;;;0.63;0.63;;;22.00;61.70;;;;;;5002857;28;20218;-64
2023/08/22 07:12:35;;;;;;;2.15;1.10;;;22.00;61.60;;;;;;4999244;28;20315;-62
2023/08/22 07:15:59;;;;;;;1.80;0.88;;;22.00;61.50;;;;;;4978627;28;20228;-55
2023/08/22 07:18:27;;;;;;;1.08;0.98;;;22.00;62.20;;;;;;4993617;28;20212;-58
2023/08/22 07:20:56;;;;;;;1.13;0.85;;;22.10;61.60;;;;;;5009019;28;20194;-54
2023/08/22 07:23:23;;;;;;;1.13;1.00;;;22.10;61.60;;;;;;5005710;28;20280;-57
2023/08/22 07:25:51;;;;;;;1.15;0.88;;;22.20;61.60;;;;;;5010954;28;20190;-57
2023/08/22 07:28:19;;;;;;;1.10;0.82;;;22.20;61.60;;;;;;5012542;28;20213;-57
2023/08/22 07:30:46;;;;;;;1.13;0.82;;;22.20;61.50;;;;;;5011477;28;20219;-55
2023/08/22 07:33:14;;;;;;;3.17;0.90;;;22.20;61.50;;;;;;5010754;28;20663;-57
2023/08/22 07:35:44;;;;;;;2.08;0.70;;;22.20;61.50;;;;;;5012292;28;20190;-57
2023/08/22 07:38:16;;;;;;;1.55;0.90;;;22.20;61.50;;;;;;5010607;28;20185;-57
2023/08/22 07:40:44;;;;;;;2.67;0.90;;;22.30;61.60;;;;;;5012399;28;20276;-57
2023/08/22 07:43:12;;;;;;;0.90;0.90;;;22.30;61.60;;;;;;5010536;28;20189;-58
2023/08/22 07:45:39;;;;;;;6.13;1.00;;;22.30;61.60;;;;;;5012415;28;20190;-57
2023/08/22 07:48:07;;;;;;;0.90;0.80;;;22.40;61.60;;;;;;5009545;28;20209;-57
2023/08/22 07:50:41;;;;;;;4.05;0.88;;;22.40;61.60;;;;;;5012468;28;20221;-57
2023/08/22 07:53:08;;;;;;;1.85;0.60;;;22.40;61.60;;;;;;5010460;28;20193;-55
2023/08/22 07:55:37;;;;;;;1.15;0.80;;;22.40;61.60;;;;;;5012336;28;20189;-57
2023/08/22 07:58:04;;;;;;;1.02;0.98;;;22.40;62.30;;;;;;5011670;28;20292;-60
2023/08/22 08:00:34;;;;;;;1.10;0.88;;;22.40;61.50;;;;;;5012168;28;20213;-60
2023/08/22 08:03:02;;;;;;;3.28;0.73;;;22.40;61.50;;;;;;5003787;28;20209;-59
2023/08/22 08:05:29;;;;;;;1.17;0.90;;;22.50;61.50;;;;;;5010639;28;20278;-58
2023/08/22 08:07:56;;;;;;;1.00;0.90;;;22.50;61.50;;;;;;5011605;28;20220;-59
2023/08/22 08:10:24;;;;;;;1.08;0.95;;;22.50;61.50;;;;;;5010316;28;20217;-60
2023/08/22 08:12:53;;;;;;;1.83;0.90;;;22.50;61.50;;;;;;5010510;28;20236;-58
2023/08/22 08:15:20;;;;;;;1.27;0.88;;;22.50;61.50;;;;;;5010921;28;20225;-60
2023/08/22 08:17:47;;;;;;;1.42;0.75;;;22.50;61.50;;;;;;5010308;28;20208;-60
2023/08/22 08:20:15;;;;;;;1.55;1.05;;;22.50;61.50;;;;;;5010941;28;20231;-60
2023/08/22 08:22:42;;;;;;;6.35;2.15;;;22.50;61.50;;;;;;5010092;28;20201;-60
2023/08/22 08:28:58;;;;;;;6.07;2.30;;;22.60;61.40;;;;;;5006678;28;20298;-59
2023/08/22 08:31:27;;;;;;;4.03;2.05;;;22.60;61.50;;;;;;4994178;28;20205;-60
2023/08/22 08:33:54;;;;;;;3.60;2.00;;;22.60;61.50;;;;;;4999212;28;20255;-62
2023/08/22 08:36:21;;;;;;;4.43;2.22;;;22.60;61.60;;;;;;5015024;28;20197;-62
2023/08/22 08:38:49;;;;;;;3.08;1.65;;;22.60;61.70;;;;;;5015294;28;20303;-63
2023/08/22 08:41:18;;;;;;;4.65;1.95;;;22.60;61.70;;;;;;5015319;28;20663;-62
2023/08/22 08:43:47;;;;;;;4.78;2.00;;;22.70;61.80;;;;;;5013154;28;20312;-61
2023/08/22 08:46:15;;;;;;;5.65;1.58;;;22.60;61.70;;;;;;5014278;28;20186;-62
2023/08/22 08:48:45;;;;;;;4.82;1.92;;;22.60;61.80;;;;;;5014532;28;20703;-62
2023/08/22 08:51:12;;;;;;;6.68;1.73;;;22.70;61.80;;;;;;5015365;28;20238;-59
2023/08/22 08:53:42;;;;;;;5.13;1.98;;;22.70;61.80;;;;;;5014765;28;20193;-58
2023/08/22 08:56:11;;;;;;;4.40;1.83;;;22.70;61.90;;;;;;5013504;28;20221;-60
2023/08/22 08:58:39;;;;;;;5.30;2.13;;;22.70;62.00;;;;;;5015178;28;20275;-61
2023/08/22 09:01:10;;;;;;;3.70;1.73;;;22.70;62.80;;;;;;5013380;28;20189;-62
2023/08/22 09:03:38;;;;;;;10.48;2.22;;;22.70;64.10;;;;;;5013893;28;20189;-60
2023/08/22 09:06:07;;;;;;;6.20;1.83;;;22.70;64.60;;;;;;5012623;28;20197;-60
2023/08/22 09:08:34;;;;;;;8.73;2.30;;;22.60;64.70;;;;;;5014802;28;20300;-59
2023/08/22 09:11:03;;;;;;;8.00;2.03;;;22.70;65.00;;;;;;5014415;28;20576;-60
2023/08/22 09:13:36;;;;;;;7.57;2.13;;;22.60;64.80;;;;;;5013741;28;20287;-60
2023/08/22 09:16:04;;;;;;;11.68;1.90;;;22.60;64.90;;;;;;5014406;28;20637;-60
2023/08/22 09:18:42;;;;;;;9.20;1.80;;;22.60;65.20;;;;;;5014779;28;20193;-59
2023/08/22 09:21:14;;;;;;;14.88;2.70;;;22.60;65.20;;;;;;5013533;28;20193;-59
2023/08/22 09:23:49;;;;;;;11.00;2.25;;;22.60;65.40;;;;;;5014703;28;20185;-61
2023/08/22 09:26:21;;;;;;;8.25;2.05;;;22.60;65.50;;;;;;5013902;28;20219;-56
2023/08/22 09:28:49;;;;;;;11.48;2.22;;;22.60;65.60;;;;;;5013763;28;20217;-60
2023/08/22 09:31:23;;;;;;;12.65;1.98;;;22.60;65.70;;;;;;5013883;28;20193;-62
2023/08/22 09:33:51;;;;;;;7.97;1.98;;;22.60;65.60;;;;;;5013518;28;20236;-63
2023/08/22 09:36:55;;;;;;;22.98;1.92;;;22.60;65.80;;;;;;5014298;28;20201;-60
2023/08/22 09:39:25;;;;;;;10.60;2.13;;;22.50;66.00;;;;;;5010378;28;20259;-62
2023/08/22 09:41:55;;;;;;;5.65;1.98;;;22.60;66.10;;;;;;5013151;28;20192;-58
2023/08/22 09:44:30;;;;;;;10.98;2.30;;;22.50;66.00;;;;;;5011931;28;20236;-61
2023/08/22 09:46:58;;;;;;;16.13;2.55;;;22.50;66.50;;;;;;4997791;28;20193;-61
2023/08/22 09:49:26;;;;;;;7.45;1.85;;;22.50;66.50;;;;;;5012433;28;20264;-60
2023/08/22 09:51:54;;;;;;;4.75;2.30;;;22.40;66.40;;;;;;5013802;28;20193;-60
2023/08/22 09:54:26;;;;;;;7.13;2.30;;;22.50;66.60;;;;;;5014361;28;20276;-63
2023/08/22 09:56:54;;;;;;;13.43;2.35;;;22.40;66.70;;;;;;5014390;28;20201;-64
2023/08/22 09:59:25;;;;;;;7.60;2.42;;;22.40;66.80;;;;;;5012402;28;20213;-61
2023/08/22 10:01:54;;;;;;;6.72;2.00;;;22.50;66.90;;;;;;5014098;28;20194;-62
2023/08/22 10:04:23;;;;;;;7.55;1.85;;;22.50;66.80;;;;;;5013990;28;20429;-61
2023/08/22 10:06:51;;;;;;;9.60;2.60;;;22.50;66.90;;;;;;5012344;28;20194;-61
2023/08/22 10:10:05;;;;;;;16.00;2.42;;;22.50;66.90;;;;;;5013737;28;20244;-60
2023/08/22 10:12:44;;;;;;;9.18;2.30;;;22.50;66.90;;;;;;4931189;29;20316;-60
2023/08/22 10:15:15;;;;;;;15.95;2.00;;;22.50;66.80;;;;;;4931988;29;20212;-63
2023/08/22 10:17:44;;;;;;;14.65;2.33;;;22.60;66.70;;;;;;4934366;29;20212;-62
2023/08/22 10:20:15;;;;;;;3.70;1.83;;;22.60;66.60;;;;;;4935461;29;20219;-61
2023/08/22 10:22:43;;;;;;;7.97;1.73;;;22.50;66.30;;;;;;4953103;29;20281;-62
2023/08/22 10:25:10;;;;;;;15.30;2.38;;;22.60;67.10;;;;;;4945310;29;20302;-59
2023/08/22 10:27:40;;;;;;;12.13;2.15;;;22.60;66.30;;;;;;4937369;29;20196;-60
2023/08/22 10:30:23;;;;;;;11.93;2.65;;;22.60;66.30;;;;;;4933752;29;20224;-57
2023/08/22 10:33:07;;;;;;;12.27;2.60;;;22.60;66.60;;;;;;4952632;29;20589;-60
2023/08/22 10:35:34;;;;;;;16.70;2.63;;;22.50;66.90;;;;;;4952320;29;20223;-62
2023/08/22 10:38:03;;;;;;;13.38;2.50;;;22.50;66.90;;;;;;4944680;29;20195;-62
2023/08/22 10:40:33;;;;;;;13.95;2.53;;;22.50;67.10;;;;;;4933319;29;20615;-62
2023/08/22 10:43:13;;;;;;;8.20;2.20;;;22.50;67.10;;;;;;4933632;29;20215;-62
2023/08/22 10:45:47;;;;;;;9.27;2.22;;;22.50;67.20;;;;;;4933164;29;20220;-61
2023/08/22 10:48:17;;;;;;;18.30;2.38;;;22.50;67.20;;;;;;4936437;28;20231;-58
2023/08/22 10:50:46;;;;;;;8.73;2.53;;;22.50;67.40;;;;;;5013050;28;20291;-61
2023/08/22 10:53:25;;;;;;;13.75;2.40;;;22.50;67.20;;;;;;5013287;28;20201;-60
2023/08/22 10:55:54;;;;;;;12.57;2.10;;;22.50;67.30;;;;;;5013257;28;20221;-56
2023/08/22 10:58:38;;;;;;;15.88;2.75;;;22.50;67.20;;;;;;5013094;28;20189;-60
2023/08/22 11:01:08;;;;;;;8.45;2.22;;;22.40;67.20;;;;;;5011327;28;20233;-60
2023/08/22 11:03:36;;;;;;;6.72;2.10;;;22.40;67.30;;;;;;5013301;28;20200;-62
2023/08/22 11:06:15;;;;;;;12.35;2.17;;;22.40;68.10;;;;;;5013058;28;20217;-62
2023/08/22 11:08:43;;;;;;;9.30;2.13;;;22.40;67.40;;;;;;5011193;28;20459;-62
2023/08/22 11:11:14;;;;;;;11.73;2.55;;;22.40;67.60;;;;;;5012584;28;20711;-60
2023/08/22 11:13:41;;;;;;;12.70;2.72;;;22.40;67.40;;;;;;5012897;28;20241;-61
2023/08/22 11:16:12;;;;;;;14.95;2.65;;;22.40;67.30;;;;;;5011146;28;20217;-62
2023/08/22 11:18:41;;;;;;;12.70;2.28;;;22.40;67.40;;;;;;5012685;28;20200;-61
2023/08/22 11:21:09;;;;;;;12.25;2.42;;;22.50;67.60;;;;;;5011341;28;20217;-61
2023/08/22 11:23:37;;;;;;;16.70;2.00;;;22.50;67.50;;;;;;5011033;28;20200;-60
2023/08/22 11:26:08;;;;;;;13.32;2.05;;;22.50;67.50;;;;;;5012730;28;20233;-61
2023/08/22 11:28:37;;;;;;;11.43;2.70;;;22.50;67.50;;;;;;5012175;28;20209;-61
2023/08/22 11:31:17;;;;;;;6.10;2.17;;;22.50;67.90;;;;;;5011253;28;20271;-61
2023/08/22 11:33:47;;;;;;;10.27;2.42;;;22.40;67.60;;;;;;5012414;28;20189;-61
2023/08/22 11:36:15;;;;;;;11.43;2.40;;;22.40;67.80;;;;;;5012395;28;20225;-61
2023/08/22 11:38:43;;;;;;;13.15;2.53;;;22.40;67.90;;;;;;5011974;28;20212;-60
2023/08/22 11:41:11;;;;;;;7.75;2.33;;;22.30;68.00;;;;;;5010863;28;20216;-61
2023/08/22 11:44:03;;;;;;;18.30;2.80;;;22.20;68.30;;;;;;5012247;28;20278;-59
2023/08/22 11:47:15;;;;;;;12.38;2.72;;;22.20;68.70;;;;;;5010499;28;20224;-61
2023/08/22 11:49:42;;;;;;;14.02;2.92;;;22.10;69.00;;;;;;5002823;28;20237;-59
2023/08/22 11:52:12;;;;;;;20.15;2.65;;;22.00;68.60;;;;;;5011542;28;20280;-60
2023/08/22 11:54:44;;;;;;;17.10;3.00;;;22.00;68.80;;;;;;5008605;28;20205;-57
2023/08/22 11:57:12;;;;;;;15.80;2.58;;;22.00;68.40;;;;;;4992266;28;20239;-59
2023/08/22 11:59:43;;;;;;;16.77;2.83;;;22.10;68.20;;;;;;5000894;28;20209;-62
2023/08/22 12:02:13;;;;;;;7.95;2.28;;;22.10;68.90;;;;;;5011728;28;20203;-61
2023/08/22 12:04:55;;;;;;;18.38;2.50;;;22.10;67.40;;;;;;4989796;28;20217;-62
2023/08/22 12:07:24;;;;;;;11.77;2.60;;;22.10;67.60;;;;;;5003835;28;20201;-62
2023/08/22 12:10:13;;;;;;;17.27;2.45;;;22.20;67.40;;;;;;5004308;28;20292;-62
2023/08/22 12:12:40;;;;;;;6.40;2.15;;;22.30;67.10;;;;;;4991191;28;20352;-62
2023/08/22 12:15:08;;;;;;;8.60;2.17;;;22.30;66.80;;;;;;4961017;28;20625;-63
2023/08/22 12:17:37;;;;;;;8.45;2.30;;;22.30;66.90;;;;;;4925925;28;20242;-59
2023/08/22 12:20:09;;;;;;;13.40;2.30;;;22.30;66.90;;;;;;4968606;28;20237;-61
2023/08/22 12:22:37;;;;;;;16.00;2.35;;;22.30;66.50;;;;;;4971570;28;20183;-62
2023/08/22 12:25:06;;;;;;;15.93;2.33;;;22.30;66.70;;;;;;4978999;28;20218;-62
2023/08/22 12:27:33;;;;;;;5.82;2.28;;;22.30;66.50;;;;;;4961705;28;20253;-60
2023/08/22 12:30:06;;;;;;;16.60;2.10;;;22.30;66.60;;;;;;4959775;28;20241;-59
2023/08/22 12:32:34;;;;;;;15.05;2.00;;;22.20;66.10;;;;;;4972290;28;20220;-61
2023/08/22 12:35:13;;;;;;;;;;;;;;;;;;;;;
2023/08/22 12:37:48;;;;;;;10.82;1.95;;;22.10;66.30;;;;;;4966974;28;20212;-59
2023/08/22 12:40:19;;;;;;;13.35;2.20;;;22.10;66.40;;;;;;4966825;28;20236;-62
2023/08/22 12:46:08;;;;;;;8.57;2.00;;;22.00;66.60;;;;;;4920808;29;20227;-61
2023/08/22 12:48:36;;;;;;;9.27;1.58;;;22.10;66.10;;;;;;4926460;29;20752;-62
2023/08/22 12:52:09;;;;;;;;;;;;;;;;;;;;;
2023/08/22 12:58:08;;;;;;;22.48;1.92;;;22.10;66.10;;;;;;4854737;29;20274;-61
2023/08/22 13:00:46;;;;;;;10.65;1.60;;;22.00;66.40;;;;;;4856542;29;20227;-60
2023/08/22 13:06:13;;;;;;;5.57;1.45;;;22.00;66.00;;;;;;4853814;29;20243;-60
2023/08/22 13:08:43;;;;;;;8.43;1.60;;;22.00;66.20;;;;;;4861108;29;20557;-60
2023/08/22 13:11:12;;;;;;;10.40;1.50;;;22.00;65.90;;;;;;4853738;29;20259;-61
2023/08/22 13:13:40;;;;;;;9.05;1.30;;;22.10;65.90;;;;;;4868535;29;20255;-58